createdAt,value
2019-02-26T00:02:10.085Z,97660.09
2019-02-26T00:04:42.085Z,97664.31
2019-02-26T00:07:16.233Z,97655.86
2019-02-26T00:09:51.222Z,97655.63
2019-02-26T00:12:23.803Z,97652.60
2019-02-26T00:14:55.049Z,97648.19
2019-02-26T00:17:26.711Z,97637.75
2019-02-26T00:19:57.919Z,97625.29
2019-02-26T00:22:29.988Z,97625.95
2019-02-26T00:25:03.811Z,97624.25
2019-02-26T00:27:35.308Z,97629.48
2019-02-26T00:30:11.201Z,97628.37
2019-02-26T00:32:42.076Z,97630.66
2019-02-26T00:35:15.836Z,97639.22
2019-02-26T00:37:48.929Z,97643.70
2019-02-26T00:40:20.425Z,97649.06
2019-02-26T00:42:54.390Z,97649.12
2019-02-26T00:45:27.220Z,97644.95
2019-02-26T00:47:58.002Z,97648.25
2019-02-26T00:50:31.043Z,97653.86
2019-02-26T00:53:03.981Z,97652.37
2019-02-26T00:55:37.982Z,97652.50
2019-02-26T00:58:10.776Z,97647.42
2019-02-26T01:00:44.690Z,97645.77
2019-02-26T01:03:15.920Z,97652.39
2019-02-26T01:05:48.681Z,97651.27
2019-02-26T01:08:20.010Z,97656.05
2019-02-26T01:10:51.899Z,97656.41
2019-02-26T01:13:25.580Z,97650.84
2019-02-26T01:15:55.982Z,97647.95
2019-02-26T01:18:29.002Z,97644.83
2019-02-26T01:21:22.110Z,97642.48
2019-02-26T01:23:52.065Z,97640.14
2019-02-26T01:26:27.319Z,97637.41
2019-02-26T01:28:58.596Z,97646.34
2019-02-26T01:31:32.087Z,97643.33
2019-02-26T01:34:03.034Z,97635.94
2019-02-26T01:36:34.267Z,97636.77
2019-02-26T01:39:11.286Z,97632.66
2019-02-26T01:41:43.364Z,97625.47
2019-02-26T01:44:15.590Z,97631.56
2019-02-26T01:46:47.026Z,97621.81
2019-02-26T01:49:19.213Z,97624.50
2019-02-26T01:51:51.865Z,97622.72
2019-02-26T01:54:23.973Z,97621.58
2019-02-26T01:56:55.160Z,97621.91
2019-02-26T01:59:28.492Z,97621.45
2019-02-26T02:01:59.941Z,97619.12
2019-02-26T02:04:32.030Z,97608.95
2019-02-26T02:07:05.943Z,97604.56
2019-02-26T02:09:37.010Z,97600.52
2019-02-26T02:12:08.800Z,97589.58
2019-02-26T02:14:42.309Z,97588.69
2019-02-26T02:17:13.988Z,97583.66
2019-02-26T02:19:45.542Z,97574.77
2019-02-26T02:22:19.478Z,97577.73
2019-02-26T02:24:53.994Z,97580.34
2019-02-26T02:27:28.172Z,97579.32
2019-02-26T02:29:58.926Z,97580.69
2019-02-26T02:32:34.301Z,97584.15
2019-02-26T02:35:06.752Z,97584.15
2019-02-26T02:37:38.790Z,97582.40
2019-02-26T02:40:10.365Z,97582.45
2019-02-26T02:42:43.094Z,97573.69
2019-02-26T02:45:19.707Z,97575.84
2019-02-26T02:47:48.040Z,97573.25
2019-02-26T02:50:19.974Z,97574.67
2019-02-26T02:53:14.441Z,97577.98
2019-02-26T02:55:47.057Z,97579.22
2019-02-26T02:58:21.282Z,97583.72
2019-02-26T03:00:54.405Z,97586.73
2019-02-26T03:03:26.051Z,97577.91
2019-02-26T03:05:58.345Z,97573.63
2019-02-26T03:08:30.920Z,97564.41
2019-02-26T03:11:14.389Z,97555.78
2019-02-26T03:13:48.351Z,97555.56
2019-02-26T03:16:21.358Z,97551.08
2019-02-26T03:18:52.085Z,97547.27
2019-02-26T03:21:24.742Z,97544.42
2019-02-26T03:23:57.859Z,97540.23
2019-02-26T03:26:29.924Z,97539.72
2019-02-26T03:29:01.501Z,97549.21
2019-02-26T03:31:35.053Z,97535.78
2019-02-26T03:34:10.455Z,97539.80
2019-02-26T03:36:40.809Z,97534.39
2019-02-26T03:39:13.973Z,97534.44
2019-02-26T03:41:46.043Z,97546.87
2019-02-26T03:44:18.049Z,97537.73
2019-02-26T03:46:49.255Z,97537.69
2019-02-26T03:49:26.402Z,97534.36
2019-02-26T03:51:59.086Z,97538.68
2019-02-26T03:54:27.131Z,97525.78
2019-02-26T03:56:59.043Z,97524.11
2019-02-26T03:59:31.111Z,97527.22
2019-02-26T04:02:02.571Z,97518.82
2019-02-26T04:04:33.809Z,97513.09
2019-02-26T04:07:09.896Z,97509.46
2019-02-26T04:09:41.837Z,97514.31
2019-02-26T04:12:12.986Z,97517.23
2019-02-26T04:14:43.953Z,97516.91
2019-02-26T04:17:15.151Z,97507.02
2019-02-26T04:19:47.779Z,97501.58
2019-02-26T04:22:50.092Z,97497.29
2019-02-26T04:25:33.966Z,97488.89
2019-02-26T04:28:15.431Z,97483.45
2019-02-26T04:31:12.498Z,97496.40
2019-02-26T04:34:04.420Z,97494.61
2019-02-26T04:37:24.604Z,97507.91
2019-02-26T04:40:17.181Z,97514.94
2019-02-26T04:43:31.382Z,97509.11
2019-02-26T04:46:30.992Z,97507.75
2019-02-26T04:49:01.937Z,97512.02
2019-02-26T04:51:34.332Z,97513.80
2019-02-26T04:54:06.758Z,97515.31
2019-02-26T04:56:40.140Z,97520.72
2019-02-26T04:59:16.976Z,97515.63
2019-02-26T05:01:52.341Z,97516.75
2019-02-26T05:04:24.936Z,97515.11
2019-02-26T05:06:56.175Z,97510.98
2019-02-26T05:09:29.774Z,97513.09
2019-02-26T05:12:00.957Z,97503.66
2019-02-26T05:14:33.436Z,97507.19
2019-02-26T05:17:05.163Z,97506.34
2019-02-26T05:19:39.247Z,97517.70
2019-02-26T05:22:09.967Z,97513.47
2019-02-26T05:24:44.231Z,97519.63
2019-02-26T05:27:18.661Z,97523.21
2019-02-26T05:29:51.977Z,97513.26
2019-02-26T05:32:25.133Z,97516.67
2019-02-26T05:34:55.007Z,97517.33
2019-02-26T05:37:29.270Z,97507.98
2019-02-26T05:39:59.965Z,97504.34
2019-02-26T05:42:31.230Z,97493.74
2019-02-26T05:45:05.857Z,97482.43
2019-02-26T05:47:35.987Z,97482.16
2019-02-26T05:50:12.987Z,97482.43
2019-02-26T05:52:40.180Z,97488.77
2019-02-26T05:55:13.971Z,97488.77
2019-02-26T05:57:44.940Z,97487.22
2019-02-26T06:00:20.667Z,97474.09
2019-02-26T06:02:51.092Z,97481.53
2019-02-26T06:05:26.162Z,97480.95
2019-02-26T06:07:58.053Z,97474.78
2019-02-26T06:10:32.522Z,97474.25
2019-02-26T06:13:05.004Z,97477.84
2019-02-26T06:15:35.972Z,97481.86
2019-02-26T06:18:07.153Z,97476.52
2019-02-26T06:20:38.944Z,97485.14
2019-02-26T06:23:10.273Z,97490.92
2019-02-26T06:25:41.916Z,97492.05
2019-02-26T06:28:15.408Z,97495.66
2019-02-26T06:30:46.001Z,97508.08
2019-02-26T06:33:18.975Z,97502.74
2019-02-26T06:35:50.173Z,97497.47
2019-02-26T06:38:23.452Z,97496.78
2019-02-26T06:40:54.939Z,97492.66
2019-02-26T06:43:26.475Z,97509.05
2019-02-26T06:46:00.064Z,97500.31
2019-02-26T06:48:32.588Z,97490.53
2019-02-26T06:51:04.645Z,97472.08
2019-02-26T06:53:36.961Z,97468.38
2019-02-26T06:56:08.174Z,97481.20
2019-02-26T06:58:42.762Z,97477.77
2019-02-26T07:01:14.846Z,97490.47
2019-02-26T07:03:46.862Z,97491.09
2019-02-26T07:06:20.853Z,97494.13
2019-02-26T07:08:52.953Z,97472.01
2019-02-26T07:11:26.210Z,97452.84
2019-02-26T07:13:58.857Z,97450.16
2019-02-26T07:16:30.442Z,97453.25
2019-02-26T07:19:03.911Z,97450.59
2019-02-26T07:21:38.029Z,97446.75
2019-02-26T07:24:10.040Z,97448.05
2019-02-26T07:26:44.132Z,97454.70
2019-02-26T07:29:17.651Z,97448.37
2019-02-26T07:31:49.948Z,97444.45
2019-02-26T07:34:22.794Z,97452.65
2019-02-26T07:36:54.997Z,97465.71
2019-02-26T07:39:26.276Z,97464.31
2019-02-26T07:41:59.907Z,97476.27
2019-02-26T07:44:31.108Z,97465.83
2019-02-26T07:47:03.687Z,97468.72
2019-02-26T07:49:36.034Z,97475.14
2019-02-26T07:52:09.594Z,97465.63
2019-02-26T07:54:42.759Z,97468.05
2019-02-26T07:57:15.727Z,97463.31
2019-02-26T07:59:50.090Z,97468.41
2019-02-26T08:02:20.964Z,97465.66
2019-02-26T08:04:52.177Z,97463.05
2019-02-26T08:07:26.238Z,97463.63
2019-02-26T08:09:58.110Z,97457.94
2019-02-26T08:12:32.385Z,97463.30
2019-02-26T08:15:04.942Z,97470.94
2019-02-26T08:17:35.980Z,97472.27
2019-02-26T08:20:10.023Z,97477.48
2019-02-26T08:22:40.931Z,97483.53
2019-02-26T08:25:13.673Z,97492.17
2019-02-26T08:27:44.918Z,97501.98
2019-02-26T08:30:20.978Z,97485.41
2019-02-26T08:32:53.628Z,97474.45
2019-02-26T08:35:24.779Z,97471.48
2019-02-26T08:37:55.945Z,97480.48
2019-02-26T08:40:27.330Z,97484.73
2019-02-26T08:43:00.584Z,97472.17
2019-02-26T08:45:32.023Z,97473.72
2019-02-26T08:48:03.792Z,97474.79
2019-02-26T08:50:38.520Z,97466.63
2019-02-26T08:53:09.829Z,97468.95
2019-02-26T08:55:41.029Z,97469.44
2019-02-26T08:58:12.558Z,97468.67
2019-02-26T09:00:44.101Z,97459.98
2019-02-26T09:03:16.036Z,97443.04
2019-02-26T09:05:49.425Z,97444.27
2019-02-26T09:08:21.143Z,97446.95
2019-02-26T09:10:53.019Z,97443.18
2019-02-26T09:13:25.570Z,97439.77
2019-02-26T09:16:00.072Z,97431.45
2019-02-26T09:18:32.510Z,97429.02
2019-02-26T09:21:06.980Z,97421.22
2019-02-26T09:23:38.043Z,97420.39
2019-02-26T09:26:10.013Z,97405.45
2019-02-26T09:28:41.902Z,97410.48
2019-02-26T09:31:14.213Z,97407.84
2019-02-26T09:33:46.012Z,97402.06
2019-02-26T09:36:20.501Z,97404.98
2019-02-26T09:38:51.415Z,97408.41
2019-02-26T09:41:23.832Z,97396.30
2019-02-26T09:43:55.181Z,97398.09
2019-02-26T09:46:27.951Z,97386.98
2019-02-26T09:49:00.899Z,97385.46
2019-02-26T09:51:33.003Z,97380.64
2019-02-26T09:54:06.065Z,97373.36
2019-02-26T09:56:37.990Z,97370.48
2019-02-26T09:59:10.260Z,97359.56
2019-02-26T10:01:44.615Z,97354.50
2019-02-26T10:04:17.311Z,97355.00
2019-02-26T10:06:48.961Z,97352.92
2019-02-26T10:09:20.737Z,97358.89
2019-02-26T10:11:51.988Z,97354.50
2019-02-26T10:14:23.239Z,97357.44
2019-02-26T10:16:56.879Z,97349.81
2019-02-26T10:19:28.269Z,97353.08
2019-02-26T10:22:00.820Z,97355.15
2019-02-26T10:24:35.336Z,97345.05
2019-02-26T10:27:08.398Z,97340.73
2019-02-26T10:29:41.956Z,97340.66
2019-02-26T10:32:13.257Z,97326.34
2019-02-26T10:34:45.992Z,97327.43
2019-02-26T10:37:18.735Z,97324.86
2019-02-26T10:39:52.036Z,97324.75
2019-02-26T10:42:24.188Z,97330.20
2019-02-26T10:44:55.930Z,97328.53
2019-02-26T10:47:29.909Z,97335.39
2019-02-26T10:50:01.078Z,97335.37
2019-02-26T10:52:33.294Z,97340.44
2019-02-26T10:55:05.081Z,97341.66
2019-02-26T10:57:38.754Z,97346.83
2019-02-26T11:00:18.657Z,97351.62
2019-02-26T11:02:53.423Z,97348.53
2019-02-26T11:05:26.316Z,97352.08
2019-02-26T11:07:59.790Z,97348.92
2019-02-26T11:10:33.659Z,97349.16
2019-02-26T11:13:05.081Z,97348.44
2019-02-26T11:15:37.064Z,97341.84
2019-02-26T11:18:14.514Z,97351.68
2019-02-26T11:20:49.716Z,97355.59
2019-02-26T11:23:30.284Z,97355.07
2019-02-26T11:25:55.780Z,97357.78
2019-02-26T11:28:29.717Z,97347.15
2019-02-26T11:31:00.046Z,97354.05
2019-02-26T11:33:31.440Z,97358.65
2019-02-26T11:36:04.979Z,97362.11
2019-02-26T11:38:39.094Z,97362.08
2019-02-26T11:41:09.999Z,97351.63
2019-02-26T11:43:41.255Z,97340.70
2019-02-26T11:46:13.513Z,97334.73
2019-02-26T11:48:45.705Z,97344.53
2019-02-26T11:51:20.068Z,97339.39
2019-02-26T11:53:52.520Z,97340.08
2019-02-26T11:56:25.716Z,97331.56
2019-02-26T11:58:58.772Z,97327.28
2019-02-26T12:01:32.233Z,97326.34
2019-02-26T12:04:04.152Z,97331.44
2019-02-26T12:06:36.077Z,97338.72
2019-02-26T12:09:10.835Z,97332.50
2019-02-26T12:11:42.044Z,97333.48
2019-02-26T12:14:19.409Z,97331.24
2019-02-26T12:16:50.194Z,97335.20
2019-02-26T12:19:23.112Z,97315.42
2019-02-26T12:21:57.277Z,97302.30
2019-02-26T12:24:28.995Z,97297.54
2019-02-26T12:27:01.105Z,97289.48
2019-02-26T12:29:33.094Z,97294.90
2019-02-26T12:32:05.151Z,97305.53
2019-02-26T12:34:38.588Z,97306.66
2019-02-26T12:37:11.701Z,97308.14
2019-02-26T12:39:43.716Z,97304.10
2019-02-26T12:42:18.479Z,97313.72
2019-02-26T12:44:48.951Z,97313.47
2019-02-26T12:47:21.785Z,97306.83
2019-02-26T12:49:55.646Z,97297.11
2019-02-26T12:52:30.161Z,97297.98
2019-02-26T12:55:00.806Z,97289.64
2019-02-26T12:57:32.976Z,97291.92
2019-02-26T13:00:06.884Z,97296.85
2019-02-26T13:02:39.990Z,97286.98
2019-02-26T13:05:35.225Z,97297.67
2019-02-26T13:08:09.788Z,97289.88
2019-02-26T13:10:42.553Z,97292.44
2019-02-26T13:13:16.012Z,97289.42
2019-02-26T13:15:48.639Z,97297.48
2019-02-26T13:18:20.014Z,97298.42
2019-02-26T13:20:56.830Z,97287.97
2019-02-26T13:23:24.209Z,97278.25
2019-02-26T13:25:56.418Z,97271.30
2019-02-26T13:28:29.717Z,97277.45
2019-02-26T13:31:02.351Z,97278.45
2019-02-26T13:33:37.648Z,97279.19
2019-02-26T13:36:09.619Z,97279.16
2019-02-26T13:38:45.010Z,97280.08
2019-02-26T13:41:38.314Z,97290.83
2019-02-26T13:43:49.079Z,97288.32
2019-02-26T13:46:22.631Z,97286.94
2019-02-26T13:48:55.515Z,97278.16
2019-02-26T13:51:27.905Z,97277.70
2019-02-26T13:53:59.093Z,97277.42
2019-02-26T13:56:31.681Z,97271.20
2019-02-26T13:59:02.998Z,97268.28
2019-02-26T14:01:34.272Z,97259.77
2019-02-26T14:04:05.935Z,97256.81
2019-02-26T14:06:37.145Z,97260.11
2019-02-26T14:09:09.918Z,97254.72
2019-02-26T14:11:42.764Z,97250.78
2019-02-26T14:14:14.891Z,97249.95
2019-02-26T14:16:47.917Z,97251.69
2019-02-26T14:19:19.111Z,97247.84
2019-02-26T14:21:50.853Z,97233.28
2019-02-26T14:24:22.076Z,97233.41
2019-02-26T14:26:54.894Z,97223.95
2019-02-26T14:29:26.111Z,97233.94
2019-02-26T14:31:58.032Z,97230.89
2019-02-26T14:34:30.180Z,97238.89
2019-02-26T14:37:01.966Z,97236.22
2019-02-26T14:39:33.168Z,97236.67
2019-02-26T14:42:05.092Z,97243.25
2019-02-26T14:44:38.634Z,97239.31
2019-02-26T14:47:09.930Z,97231.55
2019-02-26T14:49:41.131Z,97227.14
2019-02-26T14:52:12.570Z,97218.89
2019-02-26T14:54:45.763Z,97218.55
2019-02-26T14:57:17.037Z,97221.58
2019-02-26T14:59:48.952Z,97221.74
2019-02-26T15:02:20.832Z,97208.09
2019-02-26T15:04:52.841Z,97213.61
2019-02-26T15:07:26.581Z,97222.48
2019-02-26T15:09:57.956Z,97222.58
2019-02-26T15:12:29.525Z,97233.83
2019-02-26T15:15:01.057Z,97230.27
2019-02-26T15:17:33.063Z,97235.95
2019-02-26T15:20:06.324Z,97241.17
2019-02-26T15:22:38.170Z,97235.94
2019-02-26T15:25:13.123Z,97234.84
2019-02-26T15:27:44.974Z,97223.31
2019-02-26T15:30:16.689Z,97218.54
2019-02-26T15:32:48.117Z,97208.22
2019-02-26T15:35:20.094Z,97212.14
2019-02-26T15:37:52.046Z,97218.92
2019-02-26T15:40:25.842Z,97218.37
2019-02-26T15:42:57.205Z,97214.42
2019-02-26T15:45:29.553Z,97217.72
2019-02-26T15:48:03.973Z,97211.96
2019-02-26T15:50:37.701Z,97210.30
2019-02-26T15:53:09.593Z,97208.48
2019-02-26T15:55:40.932Z,97193.83
2019-02-26T15:58:12.145Z,97185.49
2019-02-26T16:00:43.813Z,97186.31
2019-02-26T16:03:15.046Z,97188.70
2019-02-26T16:05:47.059Z,97194.72
2019-02-26T16:08:19.338Z,97199.55
2019-02-26T16:10:51.052Z,97196.24
2019-02-26T16:13:23.079Z,97195.96
2019-02-26T16:15:55.082Z,97193.52
2019-02-26T16:18:27.620Z,97190.64
2019-02-26T16:21:00.185Z,97191.66
2019-02-26T16:23:31.522Z,97198.97
2019-02-26T16:26:05.643Z,97186.63
2019-02-26T16:28:38.372Z,97192.81
2019-02-26T16:31:10.181Z,97190.53
2019-02-26T16:33:42.154Z,97197.20
2019-02-26T16:36:14.016Z,97201.59
2019-02-26T16:38:50.738Z,97210.69
2019-02-26T16:41:19.089Z,97208.22
2019-02-26T16:43:51.927Z,97215.62
2019-02-26T16:46:24.048Z,97215.53
2019-02-26T16:48:55.238Z,97224.75
2019-02-26T16:51:27.120Z,97224.97
2019-02-26T16:53:59.030Z,97229.46
2019-02-26T16:56:30.223Z,97237.70
2019-02-26T16:59:02.137Z,97255.38
2019-02-26T17:01:34.955Z,97265.53
2019-02-26T17:04:07.614Z,97268.81
2019-02-26T17:06:39.687Z,97280.44
2019-02-26T17:09:13.315Z,97293.67
2019-02-26T17:11:47.110Z,97289.02
2019-02-26T17:14:18.198Z,97288.86
2019-02-26T17:16:50.267Z,97286.36
2019-02-26T17:19:22.236Z,97294.28
2019-02-26T17:21:54.133Z,97295.16
2019-02-26T17:24:26.378Z,97298.78
2019-02-26T17:26:58.092Z,97291.46
2019-02-26T17:29:29.962Z,97296.20
2019-02-26T17:32:04.048Z,97298.55
2019-02-26T17:34:35.824Z,97292.36
2019-02-26T17:37:08.506Z,97290.86
2019-02-26T17:39:40.206Z,97297.77
2019-02-26T17:42:12.210Z,97290.14
2019-02-26T17:44:44.082Z,97293.72
2019-02-26T17:47:16.110Z,97294.28
2019-02-26T17:49:48.210Z,97292.75
2019-02-26T17:52:19.522Z,97296.28
2019-02-26T17:54:52.056Z,97294.80
2019-02-26T17:57:24.520Z,97299.30
2019-02-26T17:59:56.951Z,97291.23
2019-02-26T18:02:28.432Z,97286.70
2019-02-26T18:05:00.760Z,97280.73
2019-02-26T18:07:33.700Z,97278.58
2019-02-26T18:10:06.164Z,97278.94
2019-02-26T18:12:39.946Z,97281.59
2019-02-26T18:15:11.948Z,97280.53
2019-02-26T18:17:43.262Z,97274.17
2019-02-26T18:23:27.929Z,97267.95
2019-02-26T18:26:00.712Z,97259.93
2019-02-26T18:28:31.940Z,97261.73
2019-02-26T18:31:03.279Z,97262.22
2019-02-26T18:33:36.169Z,97270.87
2019-02-26T18:36:08.518Z,97276.20
2019-02-26T18:38:40.888Z,97277.17
2019-02-26T18:41:13.069Z,97279.08
2019-02-26T18:43:47.510Z,97285.47
2019-02-26T18:46:18.133Z,97284.31
2019-02-26T18:48:50.131Z,97280.70
2019-02-26T18:51:23.782Z,97280.94
2019-02-26T18:53:54.978Z,97274.52
2019-02-26T18:56:26.282Z,97275.05
2019-02-26T19:02:22.450Z,97282.77
2019-02-26T19:04:55.848Z,97290.38
2019-02-26T19:07:28.037Z,97291.07
2019-02-26T19:10:00.876Z,97300.60
2019-02-26T19:12:33.669Z,97298.94
2019-02-26T19:15:06.303Z,97302.52
2019-02-26T19:17:40.184Z,97293.31
2019-02-26T19:20:14.954Z,97293.82
2019-02-26T19:22:47.126Z,97294.92
2019-02-26T19:25:19.827Z,97291.66
2019-02-26T19:27:53.086Z,97295.00
2019-02-26T19:30:23.999Z,97296.73
2019-02-26T19:32:55.856Z,97295.97
2019-02-26T19:35:27.097Z,97298.08
2019-02-26T19:37:58.918Z,97294.54
2019-02-26T19:40:38.649Z,97294.02
2019-02-26T19:43:09.276Z,97291.95
2019-02-26T19:45:43.626Z,97295.92
2019-02-26T19:48:14.025Z,97288.86
2019-02-26T19:50:47.945Z,97281.80
2019-02-26T19:53:20.755Z,97284.12
2019-02-26T19:55:53.129Z,97280.28
2019-02-26T19:58:24.813Z,97291.02
2019-02-26T20:00:56.436Z,97295.87
2019-02-26T20:03:39.295Z,97288.41
2019-02-26T20:06:06.892Z,97277.16
2019-02-26T20:08:47.273Z,97278.13
2019-02-26T20:11:22.369Z,97279.05
2019-02-26T20:13:52.071Z,97267.64
2019-02-26T20:16:27.581Z,97271.78
2019-02-26T20:18:59.072Z,97272.49
2019-02-26T20:21:31.022Z,97261.74
2019-02-26T20:24:16.456Z,97268.71
2019-02-26T20:26:47.623Z,97269.45
2019-02-26T20:29:21.061Z,97262.21
2019-02-26T20:31:55.612Z,97259.31
2019-02-26T20:34:25.916Z,97263.92
2019-02-26T20:36:57.117Z,97252.08
2019-02-26T20:39:28.765Z,97260.06
2019-02-26T20:41:59.968Z,97267.06
2019-02-26T20:44:32.816Z,97262.34
2019-02-26T20:47:04.019Z,97264.36
2019-02-26T20:49:35.253Z,97282.16
2019-02-26T20:52:06.822Z,97282.38
2019-02-26T20:54:38.063Z,97275.81
2019-02-26T20:57:10.211Z,97273.88
2019-02-26T20:59:42.026Z,97284.40
2019-02-26T21:02:13.676Z,97278.16
2019-02-26T21:04:45.253Z,97273.42
2019-02-26T21:07:17.080Z,97266.75
2019-02-26T21:09:48.373Z,97269.40
2019-02-26T21:12:21.155Z,97272.17
2019-02-26T21:14:53.071Z,97269.40
2019-02-26T21:17:25.850Z,97265.66
2019-02-26T21:19:58.144Z,97273.84
2019-02-26T21:22:29.832Z,97270.11
2019-02-26T21:25:01.185Z,97272.77
2019-02-26T21:27:33.231Z,97269.94
2019-02-26T21:30:05.499Z,97272.55
2019-02-26T21:32:37.020Z,97258.06
2019-02-26T21:35:08.526Z,97251.48
2019-02-26T21:37:39.973Z,97253.11
2019-02-26T21:40:15.883Z,97250.08
2019-02-26T21:42:44.967Z,97244.16
2019-02-26T21:48:53.335Z,97234.39
2019-02-26T21:51:25.005Z,97224.95
2019-02-26T21:53:58.807Z,97227.69
2019-02-26T21:56:30.138Z,97215.84
2019-02-26T21:59:02.192Z,97215.07
2019-02-26T22:01:33.932Z,97215.19
2019-02-26T22:04:05.284Z,97212.76
2019-02-26T22:06:37.086Z,97211.45
2019-02-26T22:09:09.103Z,97215.92
2019-02-26T22:11:42.573Z,97215.05
2019-02-26T22:14:17.828Z,97221.87
2019-02-26T22:16:51.404Z,97228.14
2019-02-26T22:19:22.393Z,97223.27
2019-02-26T22:21:54.326Z,97226.75
2019-02-26T22:24:25.744Z,97229.16
2019-02-26T22:26:59.381Z,97223.66
2019-02-26T22:29:30.815Z,97218.74
2019-02-26T22:32:02.540Z,97220.14
2019-02-26T22:34:34.127Z,97215.85
2019-02-26T22:37:07.409Z,97208.09
2019-02-26T22:39:40.702Z,97211.63
2019-02-26T22:42:12.010Z,97217.06
2019-02-26T22:44:43.647Z,97212.20
2019-02-26T22:47:15.021Z,97216.14
2019-02-26T22:49:46.298Z,97219.44
2019-02-26T22:52:18.053Z,97223.38
2019-02-26T22:54:49.783Z,97222.40
2019-02-26T22:57:21.316Z,97226.02
2019-02-26T22:59:53.440Z,97225.22
2019-02-26T23:02:28.077Z,97227.57
2019-02-26T23:05:01.849Z,97226.08
2019-02-26T23:07:33.277Z,97223.59
2019-02-26T23:10:05.506Z,97231.18
2019-02-26T23:12:39.932Z,97231.06
2019-02-26T23:15:12.643Z,97226.09
2019-02-26T23:17:46.331Z,97221.37
2019-02-26T23:20:18.178Z,97225.64
2019-02-26T23:22:50.318Z,97229.73
2019-02-26T23:25:22.115Z,97225.88
2019-02-26T23:27:54.002Z,97225.60
2019-02-26T23:30:27.200Z,97229.87
2019-02-26T23:32:59.537Z,97235.16
2019-02-26T23:35:31.375Z,97240.88
2019-02-26T23:38:02.972Z,97239.61
2019-02-26T23:40:34.794Z,97242.31
2019-02-26T23:43:06.486Z,97244.27
2019-02-26T23:45:38.025Z,97252.84
2019-02-26T23:48:09.224Z,97251.84
2019-02-26T23:50:40.892Z,97248.48
2019-02-26T23:53:12.115Z,97248.84
2019-02-26T23:55:47.235Z,97244.97
2019-02-26T23:58:17.133Z,97252.62
